createdAt,value
2022-08-22T00:10:30.275Z,22.87
2022-08-22T00:30:30.267Z,22.56
2022-08-22T00:50:30.220Z,22.68
2022-08-22T01:10:30.195Z,22.75
2022-08-22T01:30:30.172Z,22.68
2022-08-22T01:50:30.135Z,22.62
2022-08-22T02:10:30.118Z,22.62
2022-08-22T02:30:30.081Z,22.56
2022-08-22T02:50:30.057Z,22.62
2022-08-22T03:10:30.028Z,22.75
2022-08-22T03:30:30.008Z,22.56
2022-08-22T03:50:29.981Z,22.56
2022-08-22T04:10:29.939Z,22.56
2022-08-22T04:30:29.920Z,22.68
2022-08-22T04:50:29.908Z,22.50
2022-08-22T05:10:29.858Z,22.62
2022-08-22T05:30:29.836Z,22.50
2022-08-22T05:50:29.809Z,22.75
2022-08-22T06:10:29.810Z,22.43
2022-08-22T06:30:29.748Z,22.31
2022-08-22T06:50:29.713Z,22.50
2022-08-22T07:10:29.704Z,22.31
2022-08-22T07:30:29.675Z,22.50
2022-08-22T07:50:29.628Z,22.75
2022-08-22T08:10:29.600Z,22.81
2022-08-22T08:30:29.573Z,22.81
2022-08-22T08:50:29.569Z,22.87
2022-08-22T09:10:29.529Z,22.93
2022-08-22T09:30:29.528Z,22.75
2022-08-22T09:50:29.499Z,22.93
2022-08-22T10:10:29.492Z,23.00
2022-08-22T10:30:29.411Z,23.06
2022-08-22T10:50:29.412Z,23.25
2022-08-22T11:10:29.338Z,23.06
2022-08-22T11:30:29.313Z,23.37
2022-08-22T11:50:29.292Z,23.00
2022-08-22T12:10:29.247Z,23.00
2022-08-22T12:30:29.229Z,23.00
2022-08-22T12:50:29.186Z,23.06
2022-08-22T13:10:29.144Z,23.12
2022-08-22T13:30:29.124Z,23.18
2022-08-22T13:50:29.123Z,23.06
2022-08-22T14:10:29.065Z,23.06
2022-08-22T14:30:29.053Z,23.37
2022-08-22T14:50:28.987Z,23.37
2022-08-22T15:10:28.968Z,23.25
2022-08-22T15:30:28.930Z,23.43
2022-08-22T15:50:28.916Z,23.25
2022-08-22T16:10:28.875Z,23.43
2022-08-22T16:30:28.835Z,23.25
2022-08-22T16:50:28.793Z,23.18
2022-08-22T17:10:28.769Z,23.00
2022-08-22T17:30:28.741Z,22.81
2022-08-22T17:50:28.723Z,22.81
2022-08-22T18:10:28.689Z,22.87
2022-08-22T18:30:28.662Z,22.93
2022-08-22T18:50:28.612Z,23.06
2022-08-22T19:10:28.587Z,22.93
2022-08-22T19:30:28.572Z,23.06
2022-08-22T19:50:28.538Z,22.87
2022-08-22T20:10:28.504Z,22.75
2022-08-22T20:30:28.492Z,22.87
2022-08-22T20:50:28.450Z,22.56
2022-08-22T21:10:28.413Z,22.68
2022-08-22T21:30:28.385Z,22.81
2022-08-22T21:50:28.362Z,22.68
2022-08-22T22:10:28.328Z,22.68
2022-08-22T22:30:28.308Z,22.62
2022-08-22T22:50:28.282Z,22.56
2022-08-22T23:10:28.248Z,22.68
2022-08-22T23:30:28.223Z,22.56
2022-08-22T23:50:28.199Z,22.62
